createdAt,value
2018-06-30T00:00:46.101Z,10.03
2018-06-30T00:03:14.452Z,9.80
2018-06-30T00:05:42.793Z,11.20
2018-06-30T00:08:12.030Z,11.70
2018-06-30T00:10:40.361Z,11.07
2018-06-30T00:13:08.659Z,11.60
2018-06-30T00:15:36.827Z,11.80
2018-06-30T00:18:07.189Z,12.83
2018-06-30T00:20:35.683Z,11.97
2018-06-30T00:23:04.358Z,12.90
2018-06-30T00:25:32.519Z,12.77
2018-06-30T00:28:01.206Z,12.97
2018-06-30T00:30:29.560Z,13.17
2018-06-30T00:33:01.127Z,14.63
2018-06-30T00:35:29.342Z,13.83
2018-06-30T00:37:57.561Z,13.50
2018-06-30T00:40:25.751Z,14.13
2018-06-30T00:42:54.048Z,13.40
2018-06-30T00:45:22.208Z,13.20
2018-06-30T00:47:50.471Z,14.17
2018-06-30T00:50:19.165Z,14.37
2018-06-30T00:52:47.423Z,13.00
2018-06-30T00:55:15.612Z,13.53
2018-06-30T00:57:43.754Z,13.13
2018-06-30T01:00:12.711Z,12.87
2018-06-30T01:02:41.011Z,14.40
2018-06-30T01:05:09.774Z,15.30
2018-06-30T01:07:37.943Z,14.00
2018-06-30T01:10:06.408Z,14.60
2018-06-30T01:12:34.665Z,13.00
2018-06-30T01:15:03.048Z,13.73
2018-06-30T01:17:31.317Z,13.10
2018-06-30T01:19:59.724Z,12.67
2018-06-30T01:22:28.106Z,12.60
2018-06-30T01:24:56.467Z,13.03
2018-06-30T01:27:24.696Z,13.40
2018-06-30T01:29:52.878Z,12.23
2018-06-30T01:32:21.156Z,12.50
2018-06-30T01:34:49.303Z,12.03
2018-06-30T01:37:17.562Z,13.97
2018-06-30T01:39:45.797Z,11.80
2018-06-30T01:42:14.483Z,11.73
2018-06-30T01:44:42.693Z,11.93
2018-06-30T01:47:11.433Z,12.00
2018-06-30T01:49:39.733Z,11.60
2018-06-30T01:52:08.130Z,12.77
2018-06-30T01:54:36.330Z,12.77
2018-06-30T01:57:04.645Z,12.43
2018-06-30T01:59:32.958Z,12.97
2018-06-30T02:02:01.347Z,11.93
2018-06-30T02:04:29.590Z,12.13
2018-06-30T02:06:57.916Z,12.77
2018-06-30T02:09:26.092Z,13.43
2018-06-30T02:11:54.262Z,13.23
2018-06-30T02:14:22.545Z,15.27
2018-06-30T02:16:50.861Z,13.17
2018-06-30T02:19:19.022Z,14.07
2018-06-30T02:21:47.244Z,13.00
2018-06-30T02:24:15.818Z,13.50
2018-06-30T02:26:44.090Z,12.47
2018-06-30T02:29:12.286Z,12.67
2018-06-30T02:31:40.498Z,14.47
2018-06-30T02:34:08.790Z,12.10
2018-06-30T02:36:37.156Z,12.17
2018-06-30T02:39:07.801Z,12.57
2018-06-30T02:41:36.126Z,13.70
2018-06-30T02:44:04.465Z,11.63
2018-06-30T02:46:32.909Z,12.50
2018-06-30T02:49:01.357Z,13.30
2018-06-30T02:51:29.773Z,12.33
2018-06-30T02:53:58.105Z,13.50
2018-06-30T02:56:26.550Z,12.57
2018-06-30T02:58:55.150Z,13.70
2018-06-30T03:01:23.389Z,11.50
2018-06-30T03:03:51.594Z,12.77
2018-06-30T03:06:20.325Z,12.13
2018-06-30T03:08:48.513Z,13.43
2018-06-30T03:11:16.622Z,13.47
2018-06-30T03:13:44.897Z,12.23
2018-06-30T03:16:15.862Z,12.90
2018-06-30T03:18:44.884Z,13.20
2018-06-30T03:21:13.390Z,12.53
2018-06-30T03:23:41.666Z,11.97
2018-06-30T03:26:10.079Z,13.62
2018-06-30T03:28:38.438Z,13.32
2018-06-30T03:31:07.751Z,13.38
2018-06-30T03:33:36.002Z,13.30
2018-06-30T03:36:04.378Z,13.05
2018-06-30T03:38:32.687Z,13.62
2018-06-30T03:41:00.923Z,14.40
2018-06-30T03:43:29.216Z,13.20
2018-06-30T03:45:57.523Z,15.80
2018-06-30T03:48:25.828Z,13.95
2018-06-30T03:50:54.111Z,13.53
2018-06-30T03:53:22.585Z,13.10
2018-06-30T03:55:51.142Z,13.90
2018-06-30T03:58:19.471Z,12.10
2018-06-30T04:00:47.890Z,14.23
2018-06-30T04:03:16.067Z,12.50
2018-06-30T04:05:44.389Z,12.13
2018-06-30T04:08:13.274Z,12.15
2018-06-30T04:10:41.722Z,11.83
2018-06-30T04:13:10.009Z,11.83
2018-06-30T04:15:38.193Z,12.10
2018-06-30T04:18:06.435Z,12.70
2018-06-30T04:20:34.766Z,11.70
2018-06-30T04:23:03.124Z,13.03
2018-06-30T04:25:31.778Z,12.45
2018-06-30T04:28:00.076Z,12.03
2018-06-30T04:30:28.347Z,11.88
2018-06-30T04:32:56.570Z,11.90
2018-06-30T04:35:25.365Z,11.80
2018-06-30T04:37:53.593Z,12.37
2018-06-30T04:40:21.822Z,11.23
2018-06-30T04:42:50.236Z,11.30
2018-06-30T04:45:18.827Z,11.00
2018-06-30T04:47:47.001Z,11.90
2018-06-30T04:50:15.307Z,10.20
2018-06-30T04:52:43.550Z,11.00
2018-06-30T04:55:11.926Z,10.60
2018-06-30T04:57:40.068Z,11.07
2018-06-30T05:00:08.274Z,11.00
2018-06-30T05:02:36.382Z,10.33
2018-06-30T05:05:04.574Z,10.03
2018-06-30T05:07:32.850Z,10.67
2018-06-30T05:10:01.071Z,11.53
2018-06-30T05:12:29.897Z,10.17
2018-06-30T05:14:58.124Z,10.47
2018-06-30T05:17:27.059Z,11.80
2018-06-30T05:19:55.328Z,11.93
2018-06-30T05:22:23.672Z,12.10
2018-06-30T05:24:51.977Z,10.50
2018-06-30T05:27:20.299Z,9.90
2018-06-30T05:29:48.627Z,9.77
2018-06-30T05:32:16.875Z,10.63
2018-06-30T05:34:45.331Z,9.93
2018-06-30T05:37:14.274Z,10.10
2018-06-30T05:39:42.986Z,10.50
2018-06-30T05:42:11.570Z,10.70
2018-06-30T05:44:39.920Z,9.33
2018-06-30T05:47:08.287Z,9.07
2018-06-30T05:49:36.620Z,10.23
2018-06-30T05:52:05.076Z,7.67
2018-06-30T05:54:33.913Z,7.13
2018-06-30T05:57:02.240Z,7.47
2018-06-30T05:59:30.879Z,6.70
2018-06-30T06:01:59.197Z,6.93
2018-06-30T06:04:27.569Z,6.97
2018-06-30T06:06:55.801Z,7.33
2018-06-30T06:09:24.285Z,6.97
2018-06-30T06:11:57.559Z,8.20
2018-06-30T06:14:26.019Z,7.03
2018-06-30T06:16:54.484Z,6.83
2018-06-30T06:19:22.870Z,6.43
2018-06-30T06:21:51.216Z,6.20
2018-06-30T06:24:19.571Z,6.80
2018-06-30T06:26:47.815Z,9.80
2018-06-30T06:29:16.810Z,5.90
2018-06-30T06:31:50.582Z,5.80
2018-06-30T06:34:18.965Z,5.97
2018-06-30T06:36:47.325Z,6.70
2018-06-30T06:39:16.178Z,6.77
2018-06-30T06:41:45.350Z,7.20
2018-06-30T06:44:13.853Z,7.57
2018-06-30T06:46:42.201Z,8.37
2018-06-30T06:49:10.857Z,7.27
2018-06-30T06:51:39.891Z,9.40
2018-06-30T06:54:08.274Z,7.20
2018-06-30T06:56:37.069Z,6.43
2018-06-30T06:59:07.005Z,6.90
2018-06-30T07:01:35.513Z,6.80
2018-06-30T07:04:03.864Z,7.93
2018-06-30T07:06:32.201Z,7.63
2018-06-30T07:09:01.543Z,6.63
2018-06-30T07:11:29.901Z,7.80
2018-06-30T07:13:58.361Z,6.40
2018-06-30T07:16:26.707Z,5.63
2018-06-30T07:18:55.216Z,6.50
2018-06-30T07:21:23.843Z,6.93
2018-06-30T07:23:51.984Z,6.17
2018-06-30T07:26:20.417Z,6.30
2018-06-30T07:28:48.811Z,5.70
2018-06-30T07:31:25.976Z,6.20
2018-06-30T07:33:54.325Z,6.30
2018-06-30T07:36:22.916Z,6.23
2018-06-30T07:38:51.995Z,5.57
2018-06-30T07:41:24.958Z,5.57
2018-06-30T07:43:53.562Z,5.93
2018-06-30T07:46:23.603Z,6.00
2018-06-30T07:48:52.040Z,5.33
2018-06-30T07:51:20.963Z,5.77
2018-06-30T07:53:49.366Z,5.13
2018-06-30T07:56:17.686Z,5.97
2018-06-30T07:58:46.326Z,6.83
2018-06-30T08:01:15.293Z,6.00
2018-06-30T08:03:44.102Z,12.13
2018-06-30T08:06:12.487Z,7.20
2018-06-30T08:08:40.725Z,8.93
2018-06-30T08:11:09.023Z,6.60
2018-06-30T08:13:37.395Z,4.67
2018-06-30T08:16:06.310Z,4.63
2018-06-30T08:18:35.134Z,5.07
2018-06-30T08:21:04.285Z,7.83
2018-06-30T08:23:33.166Z,6.00
2018-06-30T08:26:01.847Z,4.47
2018-06-30T08:28:30.256Z,4.07
2018-06-30T08:30:58.629Z,6.47
2018-06-30T08:33:26.888Z,5.10
2018-06-30T08:35:55.356Z,4.60
2018-06-30T08:38:23.962Z,4.20
2018-06-30T08:40:52.642Z,4.27
2018-06-30T08:43:20.995Z,8.13
2018-06-30T08:45:49.403Z,4.03
2018-06-30T08:48:18.075Z,4.53
2018-06-30T08:50:47.792Z,4.70
2018-06-30T08:53:16.571Z,4.80
2018-06-30T08:55:44.967Z,5.27
2018-06-30T08:58:13.284Z,4.67
2018-06-30T09:00:42.315Z,4.20
2018-06-30T09:03:10.833Z,4.60
2018-06-30T09:05:39.438Z,4.20
2018-06-30T09:08:08.057Z,4.60
2018-06-30T09:10:36.977Z,5.87
2018-06-30T09:13:05.698Z,3.97
2018-06-30T09:15:34.201Z,4.17
2018-06-30T09:18:03.394Z,4.00
2018-06-30T09:20:31.754Z,3.87
2018-06-30T09:23:00.210Z,3.80
2018-06-30T09:25:28.649Z,4.33
2018-06-30T09:27:57.461Z,3.70
2018-06-30T09:30:26.394Z,3.77
2018-06-30T09:32:55.564Z,4.27
2018-06-30T09:35:24.317Z,3.50
2018-06-30T09:37:54.272Z,4.37
2018-06-30T09:40:22.770Z,5.23
2018-06-30T09:42:51.608Z,3.70
2018-06-30T09:45:19.944Z,3.87
2018-06-30T09:47:48.268Z,3.73
2018-06-30T09:50:16.739Z,4.40
2018-06-30T09:52:45.190Z,4.97
2018-06-30T09:55:14.598Z,3.93
2018-06-30T09:57:47.137Z,4.87
2018-06-30T10:00:21.262Z,4.40
2018-06-30T10:02:49.746Z,4.23
2018-06-30T10:05:18.044Z,3.80
2018-06-30T10:07:46.342Z,4.00
2018-06-30T10:10:15.121Z,4.60
2018-06-30T10:12:44.728Z,4.53
2018-06-30T10:15:13.141Z,4.60
2018-06-30T10:17:41.587Z,3.93
2018-06-30T10:20:10.169Z,3.60
2018-06-30T10:22:38.822Z,4.93
2018-06-30T10:25:07.419Z,4.93
2018-06-30T10:27:36.931Z,4.57
2018-06-30T10:30:06.242Z,4.67
2018-06-30T10:32:34.640Z,3.57
2018-06-30T10:35:03.365Z,4.40
2018-06-30T10:37:31.933Z,4.17
2018-06-30T10:40:05.258Z,4.77
2018-06-30T10:42:33.686Z,3.90
2018-06-30T10:45:02.444Z,4.80
2018-06-30T10:47:31.307Z,4.50
2018-06-30T10:50:00.083Z,4.47
2018-06-30T10:52:28.886Z,4.20
2018-06-30T10:54:58.093Z,3.83
2018-06-30T10:57:30.934Z,4.20
2018-06-30T11:00:00.786Z,4.70
2018-06-30T11:02:29.387Z,3.83
2018-06-30T11:04:58.108Z,3.40
2018-06-30T11:07:26.454Z,4.73
2018-06-30T11:09:54.826Z,3.20
2018-06-30T11:12:23.064Z,5.13
2018-06-30T11:14:51.552Z,4.30
2018-06-30T11:17:20.076Z,4.00
2018-06-30T11:19:48.369Z,5.23
2018-06-30T11:22:18.963Z,4.57
2018-06-30T11:24:47.346Z,3.60
2018-06-30T11:27:16.852Z,3.20
2018-06-30T11:29:45.226Z,3.87
2018-06-30T11:32:13.688Z,3.93
2018-06-30T11:34:42.447Z,4.00
2018-06-30T11:37:10.856Z,3.97
2018-06-30T11:39:39.468Z,4.43
2018-06-30T11:42:08.556Z,3.80
2018-06-30T11:44:42.118Z,3.50
2018-06-30T11:47:10.649Z,4.13
2018-06-30T11:49:39.088Z,4.40
2018-06-30T11:52:07.513Z,4.33
2018-06-30T11:54:36.375Z,6.40
2018-06-30T11:57:06.262Z,4.37
2018-06-30T11:59:34.786Z,3.83
2018-06-30T12:02:04.198Z,3.90
2018-06-30T12:04:32.574Z,4.33
2018-06-30T12:07:05.199Z,4.83
2018-06-30T12:09:33.617Z,6.20
2018-06-30T12:12:01.990Z,5.43
2018-06-30T12:14:30.333Z,4.40
2018-06-30T12:16:58.681Z,6.20
2018-06-30T12:19:27.058Z,4.03
2018-06-30T12:21:55.564Z,4.97
2018-06-30T12:24:24.064Z,4.63
2018-06-30T12:26:52.595Z,3.97
2018-06-30T12:29:21.255Z,4.20
2018-06-30T12:31:49.612Z,4.30
2018-06-30T12:34:17.869Z,4.67
2018-06-30T12:36:46.527Z,4.40
2018-06-30T12:39:14.990Z,4.27
2018-06-30T12:41:43.555Z,4.27
2018-06-30T12:44:13.815Z,4.90
2018-06-30T12:46:43.260Z,4.73
2018-06-30T12:49:11.657Z,6.73
2018-06-30T12:51:40.098Z,4.07
2018-06-30T12:54:09.573Z,4.23
2018-06-30T12:56:38.382Z,4.60
2018-06-30T12:59:07.224Z,3.87
2018-06-30T13:01:36.173Z,4.30
2018-06-30T13:04:05.406Z,4.50
2018-06-30T13:06:33.816Z,4.27
2018-06-30T13:09:03.788Z,6.20
2018-06-30T13:11:32.305Z,4.17
2018-06-30T13:14:06.508Z,5.40
2018-06-30T13:16:35.906Z,4.27
2018-06-30T13:19:04.287Z,5.17
2018-06-30T13:21:32.860Z,4.23
2018-06-30T13:24:01.485Z,5.20
2018-06-30T13:26:29.892Z,5.37
2018-06-30T13:28:58.319Z,4.30
2018-06-30T13:31:27.063Z,5.63
2018-06-30T13:33:55.406Z,4.37
2018-06-30T13:36:23.982Z,5.80
2018-06-30T13:38:52.476Z,5.10
2018-06-30T13:41:20.806Z,4.90
2018-06-30T13:43:49.324Z,6.83
2018-06-30T13:46:17.708Z,4.20
2018-06-30T13:48:45.987Z,4.30
2018-06-30T13:51:15.152Z,4.37
2018-06-30T13:53:45.427Z,4.57
2018-06-30T13:56:14.286Z,4.77
2018-06-30T13:58:42.592Z,5.10
2018-06-30T14:01:10.878Z,6.40
2018-06-30T14:03:39.184Z,5.20
2018-06-30T14:06:07.550Z,5.03
2018-06-30T14:08:35.764Z,5.40
2018-06-30T14:11:04.351Z,5.87
2018-06-30T14:13:32.810Z,5.27
2018-06-30T14:16:15.547Z,6.33
2018-06-30T14:18:44.023Z,5.63
2018-06-30T14:21:12.473Z,6.77
2018-06-30T14:23:41.175Z,6.93
2018-06-30T14:26:09.566Z,6.17
2018-06-30T14:28:38.717Z,5.43
2018-06-30T14:31:07.051Z,6.07
2018-06-30T14:33:35.280Z,6.00
2018-06-30T14:36:03.695Z,5.53
2018-06-30T14:38:32.092Z,5.93
2018-06-30T14:41:00.284Z,5.63
2018-06-30T14:43:28.691Z,6.97
2018-06-30T14:45:56.949Z,6.33
2018-06-30T14:48:25.249Z,6.70
2018-06-30T14:50:53.442Z,6.70
2018-06-30T14:53:21.779Z,6.27
2018-06-30T14:55:50.249Z,6.70
2018-06-30T14:58:19.141Z,8.93
2018-06-30T15:00:47.517Z,6.70
2018-06-30T15:03:15.918Z,6.30
2018-06-30T15:05:44.215Z,6.30
2018-06-30T15:08:12.965Z,6.70
2018-06-30T15:10:41.503Z,6.10
2018-06-30T15:13:09.975Z,6.33
2018-06-30T15:15:38.825Z,6.77
2018-06-30T15:18:07.164Z,6.97
2018-06-30T15:20:35.541Z,6.60
2018-06-30T15:23:04.177Z,6.63
2018-06-30T15:25:32.597Z,7.53
2018-06-30T15:28:00.940Z,6.37
2018-06-30T15:30:29.792Z,6.93
2018-06-30T15:32:58.670Z,7.33
2018-06-30T15:35:26.924Z,6.47
2018-06-30T15:37:55.179Z,6.63
2018-06-30T15:40:24.024Z,6.93
2018-06-30T15:42:52.401Z,7.20
2018-06-30T15:45:21.314Z,8.53
2018-06-30T15:47:49.807Z,6.60
2018-06-30T15:50:18.714Z,6.57
2018-06-30T15:52:47.059Z,7.87
2018-06-30T15:55:15.416Z,6.93
2018-06-30T15:57:43.746Z,6.57
2018-06-30T16:00:12.228Z,6.90
2018-06-30T16:02:40.749Z,6.80
2018-06-30T16:05:09.026Z,6.80
2018-06-30T16:07:37.371Z,7.53
2018-06-30T16:10:05.786Z,7.60
2018-06-30T16:12:34.038Z,7.33
2018-06-30T16:15:02.767Z,5.90
2018-06-30T16:17:31.119Z,6.33
2018-06-30T16:19:59.493Z,6.60
2018-06-30T16:22:27.858Z,6.20
2018-06-30T16:24:56.010Z,7.20
2018-06-30T16:27:24.849Z,6.17
2018-06-30T16:29:53.182Z,5.93
2018-06-30T16:32:22.323Z,7.63
2018-06-30T16:34:50.784Z,6.57
2018-06-30T16:37:19.374Z,5.87
2018-06-30T16:39:47.565Z,5.90
2018-06-30T16:42:16.095Z,6.03
2018-06-30T16:44:44.773Z,7.63
2018-06-30T16:47:13.088Z,6.80
2018-06-30T16:49:42.261Z,5.70
2018-06-30T16:52:10.814Z,5.63
2018-06-30T16:54:39.019Z,4.50
2018-06-30T16:57:07.288Z,4.47
2018-06-30T16:59:35.698Z,5.27
2018-06-30T17:02:04.186Z,5.40
2018-06-30T17:04:32.624Z,4.70
2018-06-30T17:07:00.874Z,4.70
2018-06-30T17:09:29.870Z,4.63
2018-06-30T17:11:58.784Z,4.67
2018-06-30T17:14:27.270Z,4.53
2018-06-30T17:16:55.559Z,4.27
2018-06-30T17:19:23.730Z,4.40
2018-06-30T17:21:52.946Z,4.50
2018-06-30T17:24:21.344Z,4.47
2018-06-30T17:26:49.690Z,4.47
2018-06-30T17:29:18.139Z,4.33
2018-06-30T17:31:46.455Z,4.40
2018-06-30T17:34:14.760Z,3.10
2018-06-30T17:36:43.942Z,4.00
2018-06-30T17:39:12.478Z,3.13
2018-06-30T17:41:41.046Z,3.37
2018-06-30T17:44:09.738Z,3.03
2018-06-30T17:46:38.550Z,3.60
2018-06-30T17:49:07.487Z,3.50
2018-06-30T17:51:35.823Z,3.50
2018-06-30T17:54:04.680Z,2.50
2018-06-30T17:56:33.383Z,2.50
2018-06-30T17:59:01.822Z,2.80
2018-06-30T18:01:30.588Z,3.17
2018-06-30T18:03:59.089Z,2.23
2018-06-30T18:06:27.409Z,3.60
2018-06-30T18:08:55.746Z,2.57
2018-06-30T18:11:24.394Z,2.57
2018-06-30T18:13:53.002Z,2.30
2018-06-30T18:16:21.358Z,1.77
2018-06-30T18:18:49.802Z,2.37
2018-06-30T18:21:18.107Z,2.10
2018-06-30T18:23:46.364Z,1.77
2018-06-30T18:26:15.047Z,2.67
2018-06-30T18:28:43.885Z,1.50
2018-06-30T18:31:12.140Z,1.37
2018-06-30T18:33:41.212Z,1.10
2018-06-30T18:36:09.713Z,2.03
2018-06-30T18:38:38.475Z,1.77
2018-06-30T18:41:06.886Z,1.60
2018-06-30T18:43:35.247Z,1.03
2018-06-30T18:46:03.824Z,0.80
2018-06-30T18:48:32.567Z,1.10
2018-06-30T18:51:00.860Z,4.47
2018-06-30T18:53:33.693Z,2.07
2018-06-30T18:56:02.180Z,17.53
2018-06-30T18:58:30.506Z,6.53
2018-06-30T19:00:58.915Z,2.00
2018-06-30T19:03:27.338Z,1.10
2018-06-30T19:05:55.922Z,0.70
2018-06-30T19:08:24.338Z,1.13
2018-06-30T19:10:52.702Z,0.80
2018-06-30T19:13:21.116Z,0.90
2018-06-30T19:15:49.397Z,1.90
2018-06-30T19:18:17.674Z,1.23
2018-06-30T19:20:46.137Z,4.53
2018-06-30T19:23:14.722Z,3.27
2018-06-30T19:25:42.991Z,0.70
2018-06-30T19:28:11.337Z,0.50
2018-06-30T19:30:40.168Z,2.73
2018-06-30T19:33:08.713Z,0.57
2018-06-30T19:35:37.398Z,4.73
2018-06-30T19:38:05.855Z,0.60
2018-06-30T19:40:34.319Z,2.40
2018-06-30T19:43:02.698Z,0.90
2018-06-30T19:45:31.378Z,1.87
2018-06-30T19:48:04.239Z,1.17
2018-06-30T19:50:32.731Z,0.87
2018-06-30T19:53:01.183Z,0.90
2018-06-30T19:55:29.444Z,1.57
2018-06-30T19:57:57.762Z,0.60
2018-06-30T20:00:26.125Z,1.50
2018-06-30T20:02:54.518Z,0.60
2018-06-30T20:05:22.848Z,1.53
2018-06-30T20:07:53.847Z,2.67
2018-06-30T20:10:23.038Z,0.70
2018-06-30T20:12:51.413Z,1.53
2018-06-30T20:15:20.088Z,7.50
2018-06-30T20:17:48.364Z,0.60
2018-06-30T20:20:16.702Z,0.50
2018-06-30T20:22:45.403Z,0.60
2018-06-30T20:25:13.626Z,1.07
2018-06-30T20:27:42.178Z,1.30
2018-06-30T20:30:10.424Z,0.53
2018-06-30T20:32:43.001Z,0.57
2018-06-30T20:35:11.411Z,0.47
2018-06-30T20:37:39.795Z,0.60
2018-06-30T20:40:08.288Z,0.60
2018-06-30T20:42:36.716Z,4.50
2018-06-30T20:45:05.424Z,0.50
2018-06-30T20:47:33.726Z,0.90
2018-06-30T20:50:05.775Z,1.57
2018-06-30T20:52:34.356Z,0.60
2018-06-30T20:55:02.716Z,0.90
2018-06-30T20:57:33.800Z,0.50
2018-06-30T21:00:02.811Z,1.10
2018-06-30T21:02:33.080Z,0.60
2018-06-30T21:05:02.931Z,2.50
2018-06-30T21:07:31.254Z,1.83
2018-06-30T21:09:59.587Z,0.50
2018-06-30T21:12:28.776Z,0.53
2018-06-30T21:14:57.262Z,1.53
2018-06-30T21:17:27.160Z,2.00
2018-06-30T21:19:55.588Z,0.97
2018-06-30T21:22:25.371Z,0.57
2018-06-30T21:24:58.628Z,0.77
2018-06-30T21:27:26.980Z,0.67
2018-06-30T21:29:55.488Z,0.50
2018-06-30T21:32:24.839Z,0.93
2018-06-30T21:34:53.427Z,0.40
2018-06-30T21:37:22.023Z,2.80
2018-06-30T21:39:51.042Z,0.53
2018-06-30T21:42:21.179Z,0.80
2018-06-30T21:44:49.550Z,0.93
2018-06-30T21:47:17.870Z,2.23
2018-06-30T21:49:46.219Z,0.50
2018-06-30T21:52:14.499Z,0.50
2018-06-30T21:54:43.062Z,0.60
2018-06-30T21:57:11.357Z,1.40
2018-06-30T21:59:40.176Z,0.50
2018-06-30T22:02:09.122Z,0.97
2018-06-30T22:04:38.214Z,0.70
2018-06-30T22:07:06.787Z,2.33
2018-06-30T22:09:35.452Z,0.40
2018-06-30T22:12:04.888Z,0.97
2018-06-30T22:14:33.292Z,2.20
2018-06-30T22:17:02.031Z,0.60
2018-06-30T22:19:30.343Z,1.63
2018-06-30T22:21:59.308Z,0.50
2018-06-30T22:24:28.088Z,1.80
2018-06-30T22:26:57.342Z,0.70
2018-06-30T22:29:25.844Z,2.50
2018-06-30T22:31:54.108Z,0.40
2018-06-30T22:34:23.195Z,0.60
2018-06-30T22:36:56.276Z,0.80
2018-06-30T22:39:41.823Z,1.30
2018-06-30T22:42:10.465Z,1.43
2018-06-30T22:44:38.929Z,1.30
2018-06-30T22:47:08.033Z,0.43
2018-06-30T22:49:36.259Z,0.50
2018-06-30T22:52:05.093Z,0.80
2018-06-30T22:54:33.647Z,0.63
2018-06-30T22:57:02.775Z,1.17
2018-06-30T22:59:31.028Z,0.70
2018-06-30T23:02:00.027Z,2.00
2018-06-30T23:04:28.623Z,1.27
2018-06-30T23:06:57.047Z,1.00
2018-06-30T23:09:25.520Z,2.00
2018-06-30T23:11:53.726Z,0.97
2018-06-30T23:14:22.225Z,1.13
2018-06-30T23:16:50.457Z,1.37
2018-06-30T23:19:18.653Z,0.93
2018-06-30T23:21:47.510Z,0.80
2018-06-30T23:24:16.086Z,0.93
2018-06-30T23:26:44.527Z,1.43
2018-06-30T23:29:13.269Z,2.77
2018-06-30T23:31:41.718Z,2.30
2018-06-30T23:34:09.940Z,1.30
2018-06-30T23:36:38.338Z,1.43
2018-06-30T23:39:09.893Z,0.97
2018-06-30T23:41:38.721Z,1.30
2018-06-30T23:44:07.885Z,1.00
2018-06-30T23:46:36.368Z,4.27
2018-06-30T23:49:05.285Z,2.30
2018-06-30T23:51:33.527Z,0.90
2018-06-30T23:54:02.542Z,2.33
2018-06-30T23:56:30.925Z,1.23
2018-06-30T23:58:59.282Z,1.83
